createdAt,value
2022-10-21T00:00:36.659Z,98876.56
2022-10-21T00:02:46.442Z,98881.34
2022-10-21T00:03:48.646Z,98879.94
2022-10-21T00:04:50.839Z,98877.63
2022-10-21T00:05:53.388Z,98881.44
2022-10-21T00:06:55.523Z,98876.72
2022-10-21T00:07:58.262Z,98875.09
2022-10-21T00:09:00.510Z,98876.81
2022-10-21T00:10:04.628Z,98875.94
2022-10-21T00:11:09.281Z,98875.09
2022-10-21T00:12:11.507Z,98876.25
2022-10-21T00:13:13.703Z,98877.19
2022-10-21T00:14:16.138Z,98882.19
2022-10-21T00:15:18.380Z,98878.50
2022-10-21T00:16:20.579Z,98874.81
2022-10-21T00:17:22.777Z,98878.22
2022-10-21T00:18:24.942Z,98872.16
2022-10-21T00:19:27.113Z,98878.31
2022-10-21T00:20:29.332Z,98880.28
2022-10-21T00:21:31.476Z,98882.63
2022-10-21T00:22:33.938Z,98886.44
2022-10-21T00:23:36.708Z,98882.19
2022-10-21T00:24:38.958Z,98896.53
2022-10-21T00:25:42.113Z,98886.25
2022-10-21T00:26:44.330Z,98884.38
2022-10-21T00:27:46.610Z,98886.16
2022-10-21T00:28:48.847Z,98886.44
2022-10-21T00:29:51.050Z,98897.59
2022-10-21T00:30:53.622Z,98895.03
2022-10-21T00:31:56.337Z,98891.88
2022-10-21T00:33:02.168Z,98896.19
2022-10-21T00:34:05.447Z,98896.28
2022-10-21T00:35:07.796Z,98897.69
2022-10-21T00:36:14.866Z,98889.44
2022-10-21T00:37:20.158Z,98883.34
2022-10-21T00:39:29.674Z,98886.16
2022-10-21T00:40:32.794Z,98874.44
2022-10-21T00:41:34.992Z,98890.94
2022-10-21T00:42:43.685Z,98879.84
2022-10-21T00:44:02.731Z,98896.34
2022-10-21T00:45:04.832Z,98893.47
2022-10-21T00:46:07.784Z,98902.22
2022-10-21T00:47:16.580Z,98894.53
2022-10-21T00:48:23.784Z,98893.84
2022-10-21T00:49:45.062Z,98894.78
2022-10-21T00:50:57.443Z,98903.41
2022-10-21T00:52:03.377Z,98904.22
2022-10-21T00:53:09.466Z,98900.34
2022-10-21T00:54:11.819Z,98918.75
2022-10-21T00:55:14.298Z,98916.00
2022-10-21T00:56:20.928Z,98905.28
2022-10-21T00:57:25.300Z,98902.03
2022-10-21T00:58:31.509Z,98888.63
2022-10-21T00:59:39.357Z,98878.13
2022-10-21T01:00:41.552Z,98881.41
2022-10-21T01:01:43.981Z,98869.72
2022-10-21T01:02:46.348Z,98870.63
2022-10-21T01:03:50.450Z,98856.38
2022-10-21T01:04:56.310Z,98855.38
2022-10-21T01:06:02.419Z,98843.84
2022-10-21T01:07:05.559Z,98836.31
2022-10-21T01:08:07.802Z,98832.56
2022-10-21T01:09:10.136Z,98849.72
2022-10-21T01:10:12.389Z,98849.31
2022-10-21T01:11:17.791Z,98848.59
2022-10-21T01:12:43.873Z,98851.63
2022-10-21T01:14:03.603Z,98844.78
2022-10-21T01:15:21.023Z,98837.41
2022-10-21T01:16:38.046Z,98830.94
2022-10-21T01:17:49.954Z,98823.81
2022-10-21T01:19:08.112Z,98816.47
2022-10-21T01:20:41.147Z,98811.84
2022-10-21T01:21:58.072Z,98805.59
2022-10-21T01:23:31.088Z,98801.13
2022-10-21T01:24:49.549Z,98809.16
2022-10-21T01:25:54.353Z,98801.88
2022-10-21T01:27:05.188Z,98797.84
2022-10-21T01:28:38.014Z,98796.50
2022-10-21T01:30:06.203Z,98785.09
2022-10-21T01:31:42.615Z,98790.88
2022-10-21T01:33:14.061Z,98783.09
2022-10-21T01:34:39.251Z,98777.06
2022-10-21T01:35:48.440Z,98765.16
2022-10-21T01:36:59.417Z,98769.06
2022-10-21T01:38:18.116Z,98774.56
2022-10-21T01:39:41.800Z,98769.19
2022-10-21T01:40:57.255Z,98771.72
2022-10-21T01:43:27.365Z,98760.84
2022-10-21T01:44:38.104Z,98769.63
2022-10-21T01:45:59.877Z,98768.38
2022-10-21T01:47:09.328Z,98779.03
2022-10-21T01:48:19.070Z,98777.31
2022-10-21T01:49:28.498Z,98774.81
2022-10-21T01:50:36.861Z,98777.31
2022-10-21T01:51:40.010Z,98776.31
2022-10-21T01:52:47.453Z,98770.47
2022-10-21T01:53:55.385Z,98774.06
2022-10-21T01:55:12.267Z,98774.25
2022-10-21T01:56:17.549Z,98767.19
2022-10-21T01:57:23.781Z,98774.34
2022-10-21T01:58:31.243Z,98763.44
2022-10-21T01:59:34.850Z,98765.88
2022-10-21T02:00:39.387Z,98763.91
2022-10-21T02:01:44.726Z,98761.03
2022-10-21T02:02:49.108Z,98763.34
2022-10-21T02:03:58.820Z,98766.09
2022-10-21T02:05:08.008Z,98767.38
2022-10-21T02:06:12.464Z,98752.16
2022-10-21T02:07:14.631Z,98757.22
2022-10-21T02:08:17.037Z,98749.41
2022-10-21T02:09:20.277Z,98753.19
2022-10-21T02:10:25.508Z,98755.66
2022-10-21T02:11:28.769Z,98753.19
2022-10-21T02:12:33.705Z,98758.25
2022-10-21T02:13:43.063Z,98753.91
2022-10-21T02:14:51.013Z,98757.81
2022-10-21T02:15:56.423Z,98752.06
2022-10-21T02:17:00.392Z,98748.06
2022-10-21T02:18:08.751Z,98758.72
2022-10-21T02:19:14.879Z,98756.72
2022-10-21T02:20:19.012Z,98749.84
2022-10-21T02:21:25.600Z,98749.56
2022-10-21T02:22:28.905Z,98730.94
2022-10-21T02:23:50.443Z,98736.44
2022-10-21T02:24:58.373Z,98733.78
2022-10-21T02:26:00.984Z,98736.78
2022-10-21T02:27:03.261Z,98736.56
2022-10-21T02:28:05.560Z,98729.56
2022-10-21T02:29:07.896Z,98734.66
2022-10-21T02:30:10.810Z,98728.00
2022-10-21T02:31:21.755Z,98731.63
2022-10-21T02:32:32.937Z,98719.66
2022-10-21T02:33:58.436Z,98712.69
2022-10-21T02:35:15.966Z,98717.88
2022-10-21T02:36:32.309Z,98719.44
2022-10-21T02:37:53.049Z,98722.09
2022-10-21T02:39:02.472Z,98720.41
2022-10-21T02:40:18.226Z,98713.09
2022-10-21T02:41:23.623Z,98729.41
2022-10-21T02:42:32.662Z,98723.22
2022-10-21T02:43:48.049Z,98725.78
2022-10-21T02:44:52.173Z,98725.81
2022-10-21T02:45:59.440Z,98729.53
2022-10-21T02:47:03.627Z,98729.34
2022-10-21T02:48:06.228Z,98716.56
2022-10-21T02:49:09.607Z,98722.03
2022-10-21T02:50:12.849Z,98715.50
2022-10-21T02:51:15.131Z,98709.56
2022-10-21T02:52:17.322Z,98703.66
2022-10-21T02:53:19.458Z,98704.50
2022-10-21T02:54:21.791Z,98711.13
2022-10-21T02:55:24.146Z,98702.91
2022-10-21T02:56:27.182Z,98700.81
2022-10-21T02:57:29.333Z,98706.94
2022-10-21T02:58:31.866Z,98707.38
2022-10-21T02:59:34.041Z,98701.25
2022-10-21T03:00:36.190Z,98695.09
2022-10-21T03:01:38.385Z,98696.81
2022-10-21T03:02:42.001Z,98703.97
2022-10-21T03:03:44.181Z,98697.53
2022-10-21T03:04:46.341Z,98701.25
2022-10-21T03:05:48.860Z,98705.56
2022-10-21T03:06:50.988Z,98700.59
2022-10-21T03:07:53.214Z,98710.31
2022-10-21T03:08:55.463Z,98712.75
2022-10-21T03:09:57.637Z,98712.56
2022-10-21T03:10:59.885Z,98710.22
2022-10-21T03:12:02.055Z,98716.22
2022-10-21T03:13:04.595Z,98711.50
2022-10-21T03:14:06.763Z,98701.88
2022-10-21T03:15:09.305Z,98694.78
2022-10-21T03:16:11.676Z,98690.69
2022-10-21T03:17:13.893Z,98704.31
2022-10-21T03:18:16.225Z,98695.84
2022-10-21T03:19:18.378Z,98699.88
2022-10-21T03:20:20.633Z,98694.41
2022-10-21T03:21:22.859Z,98690.50
2022-10-21T03:22:24.996Z,98693.84
2022-10-21T03:23:27.165Z,98689.34
2022-10-21T03:24:29.318Z,98686.88
2022-10-21T03:25:35.328Z,98684.44
2022-10-21T03:26:37.995Z,98676.19
2022-10-21T03:27:40.336Z,98688.81
2022-10-21T03:28:42.514Z,98693.34
2022-10-21T03:29:44.763Z,98699.16
2022-10-21T03:30:46.988Z,98696.72
2022-10-21T03:31:49.227Z,98698.28
2022-10-21T03:32:51.424Z,98689.44
2022-10-21T03:33:53.592Z,98697.78
2022-10-21T03:34:55.747Z,98698.22
2022-10-21T03:35:58.113Z,98704.88
2022-10-21T03:37:00.300Z,98694.91
2022-10-21T03:38:02.450Z,98698.41
2022-10-21T03:39:13.583Z,98704.44
2022-10-21T03:40:15.924Z,98703.19
2022-10-21T03:41:18.083Z,98705.41
2022-10-21T03:42:20.251Z,98706.16
2022-10-21T03:43:22.430Z,98704.03
2022-10-21T03:44:24.575Z,98705.41
2022-10-21T03:45:27.149Z,98706.78
2022-10-21T03:46:29.320Z,98708.16
2022-10-21T03:47:31.547Z,98704.88
2022-10-21T03:48:33.730Z,98700.94
2022-10-21T03:50:42.963Z,98702.31
2022-10-21T03:51:45.247Z,98708.88
2022-10-21T03:52:47.408Z,98713.53
2022-10-21T03:53:49.608Z,98709.72
2022-10-21T03:54:51.775Z,98707.41
2022-10-21T03:55:56.658Z,98708.88
2022-10-21T03:56:59.074Z,98713.84
2022-10-21T03:58:01.209Z,98707.59
2022-10-21T03:59:03.639Z,98722.22
2022-10-21T04:00:06.651Z,98714.38
2022-10-21T04:01:14.891Z,98706.34
2022-10-21T04:02:17.327Z,98695.88
2022-10-21T04:03:19.731Z,98693.53
2022-10-21T04:04:21.919Z,98689.53
2022-10-21T04:05:24.078Z,98697.16
2022-10-21T04:06:26.258Z,98698.31
2022-10-21T04:07:28.525Z,98693.78
2022-10-21T04:08:30.773Z,98695.88
2022-10-21T04:09:32.966Z,98696.94
2022-10-21T04:10:35.206Z,98693.88
2022-10-21T04:11:37.662Z,98690.06
2022-10-21T04:12:40.211Z,98696.50
2022-10-21T04:13:42.542Z,98693.25
2022-10-21T04:14:44.757Z,98698.53
2022-10-21T04:15:46.898Z,98700.41
2022-10-21T04:16:53.610Z,98698.84
2022-10-21T04:18:05.837Z,98686.38
2022-10-21T04:19:08.794Z,98677.69
2022-10-21T04:20:11.611Z,98681.59
2022-10-21T04:21:14.561Z,98685.63
2022-10-21T04:22:16.812Z,98678.41
2022-10-21T04:23:19.595Z,98686.34
2022-10-21T04:24:22.547Z,98677.59
2022-10-21T04:25:24.725Z,98685.53
2022-10-21T04:26:26.903Z,98683.81
2022-10-21T04:27:29.261Z,98681.72
2022-10-21T04:28:31.552Z,98677.66
2022-10-21T04:29:36.456Z,98682.00
2022-10-21T04:30:38.653Z,98682.63
2022-10-21T04:31:40.970Z,98682.97
2022-10-21T04:32:43.193Z,98680.22
2022-10-21T04:33:45.378Z,98687.41
2022-10-21T04:34:47.915Z,98684.34
2022-10-21T04:35:50.185Z,98673.53
2022-10-21T04:36:52.360Z,98684.41
2022-10-21T04:37:55.328Z,98682.53
2022-10-21T04:38:57.504Z,98684.34
2022-10-21T04:39:59.759Z,98686.25
2022-10-21T04:41:03.187Z,98677.03
2022-10-21T04:42:05.463Z,98680.09
2022-10-21T04:43:07.605Z,98669.41
2022-10-21T04:44:09.746Z,98669.84
2022-10-21T04:45:11.888Z,98672.09
2022-10-21T04:46:16.122Z,98663.91
2022-10-21T04:47:18.279Z,98667.63
2022-10-21T04:48:21.315Z,98667.63
2022-10-21T04:49:23.496Z,98666.16
2022-10-21T04:50:25.734Z,98671.63
2022-10-21T04:51:28.150Z,98670.47
2022-10-21T04:52:30.339Z,98662.94
2022-10-21T04:53:32.780Z,98666.16
2022-10-21T04:54:34.925Z,98668.53
2022-10-21T04:55:40.266Z,98676.47
2022-10-21T04:56:42.781Z,98675.56
2022-10-21T04:57:44.987Z,98664.88
2022-10-21T04:58:47.134Z,98661.19
2022-10-21T04:59:49.324Z,98668.88
2022-10-21T05:00:52.042Z,98668.66
2022-10-21T05:01:54.275Z,98668.16
2022-10-21T05:02:56.492Z,98661.59
2022-10-21T05:03:58.690Z,98669.72
2022-10-21T05:05:00.853Z,98673.44
2022-10-21T05:06:03.368Z,98667.50
2022-10-21T05:07:05.577Z,98657.13
2022-10-21T05:08:11.506Z,98657.66
2022-10-21T05:09:14.251Z,98656.59
2022-10-21T05:10:16.499Z,98669.81
2022-10-21T05:11:18.716Z,98663.66
2022-10-21T05:12:20.926Z,98669.38
2022-10-21T05:13:23.063Z,98661.31
2022-10-21T05:14:25.310Z,98671.06
2022-10-21T05:15:27.464Z,98670.72
2022-10-21T05:16:29.635Z,98672.56
2022-10-21T05:17:31.860Z,98667.16
2022-10-21T05:18:34.204Z,98663.75
2022-10-21T05:19:36.331Z,98675.72
2022-10-21T05:20:38.493Z,98675.50
2022-10-21T05:21:40.624Z,98681.53
2022-10-21T05:22:42.817Z,98671.19
2022-10-21T05:23:44.992Z,98680.50
2022-10-21T05:24:47.155Z,98680.59
2022-10-21T05:25:51.597Z,98668.72
2022-10-21T05:26:53.843Z,98677.59
2022-10-21T05:27:55.995Z,98670.25
2022-10-21T05:28:58.859Z,98670.69
2022-10-21T05:30:01.144Z,98663.28
2022-10-21T05:31:03.532Z,98671.72
2022-10-21T05:32:05.790Z,98678.25
2022-10-21T05:33:08.009Z,98673.47
2022-10-21T05:34:10.248Z,98665.66
2022-10-21T05:35:12.466Z,98672.00
2022-10-21T05:36:14.628Z,98672.06
2022-10-21T05:37:16.799Z,98667.31
2022-10-21T05:38:18.962Z,98677.22
2022-10-21T05:39:21.144Z,98674.47
2022-10-21T05:40:23.636Z,98682.34
2022-10-21T05:41:25.774Z,98678.72
2022-10-21T05:42:27.963Z,98682.13
2022-10-21T05:43:30.365Z,98669.19
2022-10-21T05:44:32.527Z,98674.19
2022-10-21T05:45:34.694Z,98666.75
2022-10-21T05:46:36.941Z,98667.50
2022-10-21T05:47:41.032Z,98669.97
2022-10-21T05:48:43.411Z,98669.09
2022-10-21T05:49:45.614Z,98666.88
2022-10-21T05:50:51.181Z,98673.97
2022-10-21T05:51:53.453Z,98662.09
2022-10-21T05:52:58.797Z,98673.53
2022-10-21T05:54:03.666Z,98680.31
2022-10-21T05:55:06.907Z,98660.72
2022-10-21T05:56:09.102Z,98673.63
2022-10-21T05:57:11.408Z,98668.13
2022-10-21T05:58:13.628Z,98662.50
2022-10-21T05:59:16.164Z,98673.72
2022-10-21T06:00:18.484Z,98663.34
2022-10-21T06:01:20.751Z,98662.78
2022-10-21T06:02:23.030Z,98652.41
2022-10-21T06:03:29.910Z,98669.25
2022-10-21T06:04:36.407Z,98661.09
2022-10-21T06:05:41.134Z,98666.81
2022-10-21T06:06:43.290Z,98664.31
2022-10-21T06:07:45.480Z,98657.47
2022-10-21T06:08:47.664Z,98662.22
2022-10-21T06:09:49.845Z,98672.91
2022-10-21T06:11:02.009Z,98668.78
2022-10-21T06:12:04.473Z,98653.97
2022-10-21T06:13:06.689Z,98667.28
2022-10-21T06:14:08.849Z,98663.38
2022-10-21T06:15:11.212Z,98658.63
2022-10-21T06:16:14.726Z,98663.19
2022-10-21T06:17:17.267Z,98666.03
2022-10-21T06:18:19.524Z,98652.91
2022-10-21T06:19:21.748Z,98651.56
2022-10-21T06:20:23.969Z,98652.63
2022-10-21T06:21:26.121Z,98645.66
2022-10-21T06:22:28.841Z,98654.19
2022-10-21T06:23:31.156Z,98638.84
2022-10-21T06:24:33.764Z,98653.03
2022-10-21T06:25:35.979Z,98635.88
2022-10-21T06:26:38.295Z,98641.88
2022-10-21T06:27:40.883Z,98644.03
2022-10-21T06:28:44.494Z,98640.44
2022-10-21T06:29:46.906Z,98633.97
2022-10-21T06:30:49.327Z,98632.13
2022-10-21T06:31:51.612Z,98636.25
2022-10-21T06:32:53.783Z,98631.81
2022-10-21T06:33:55.974Z,98621.78
2022-10-21T06:34:58.236Z,98621.59
2022-10-21T06:36:00.950Z,98624.13
2022-10-21T06:37:03.168Z,98630.69
2022-10-21T06:38:05.480Z,98641.28
2022-10-21T06:39:08.316Z,98645.38
2022-10-21T06:40:10.935Z,98649.44
2022-10-21T06:41:15.105Z,98640.53
2022-10-21T06:42:18.043Z,98641.78
2022-10-21T06:44:30.155Z,98646.72
2022-10-21T06:45:32.385Z,98652.25
2022-10-21T06:46:34.688Z,98653.44
2022-10-21T06:47:37.165Z,98657.66
2022-10-21T06:48:39.955Z,98653.31
2022-10-21T06:49:42.124Z,98654.28
2022-10-21T06:50:44.340Z,98661.19
2022-10-21T06:51:46.485Z,98672.38
2022-10-21T06:52:50.545Z,98679.91
2022-10-21T06:53:58.332Z,98684.56
2022-10-21T06:55:00.512Z,98682.84
2022-10-21T06:56:13.749Z,98684.41
2022-10-21T06:57:15.906Z,98677.97
2022-10-21T06:58:18.121Z,98670.16
2022-10-21T06:59:20.358Z,98671.75
2022-10-21T07:00:22.613Z,98662.66
2022-10-21T07:01:34.921Z,98654.75
2022-10-21T07:02:43.917Z,98666.41
2022-10-21T07:03:46.139Z,98668.06
2022-10-21T07:04:49.260Z,98665.31
2022-10-21T07:05:59.187Z,98650.41
2022-10-21T07:07:01.352Z,98642.78
2022-10-21T07:08:03.806Z,98617.28
2022-10-21T07:09:07.372Z,98621.31
2022-10-21T07:10:09.683Z,98618.56
2022-10-21T07:11:13.767Z,98623.22
2022-10-21T07:12:17.227Z,98623.09
2022-10-21T07:13:24.837Z,98618.63
2022-10-21T07:14:28.360Z,98619.75
2022-10-21T07:15:30.553Z,98617.47
2022-10-21T07:16:35.774Z,98620.13
2022-10-21T07:17:38.078Z,98629.84
2022-10-21T07:18:42.605Z,98619.16
2022-10-21T07:19:45.003Z,98635.78
2022-10-21T07:20:47.216Z,98639.34
2022-10-21T07:21:49.545Z,98632.28
2022-10-21T07:22:51.783Z,98644.44
2022-10-21T07:23:56.692Z,98640.63
2022-10-21T07:26:08.966Z,98653.84
2022-10-21T07:27:11.239Z,98657.31
2022-10-21T07:28:13.680Z,98665.66
2022-10-21T07:29:16.159Z,98664.16
2022-10-21T07:30:18.520Z,98669.56
2022-10-21T07:31:21.649Z,98660.53
2022-10-21T07:32:23.870Z,98666.38
2022-10-21T07:33:26.197Z,98668.78
2022-10-21T07:34:28.448Z,98668.78
2022-10-21T07:35:30.625Z,98674.81
2022-10-21T07:36:39.220Z,98670.13
2022-10-21T07:37:41.676Z,98680.72
2022-10-21T07:38:46.513Z,98674.19
2022-10-21T07:39:48.828Z,98688.94
2022-10-21T07:40:51.030Z,98686.72
2022-10-21T07:41:55.409Z,98679.41
2022-10-21T07:42:58.273Z,98677.09
2022-10-21T07:44:00.644Z,98677.00
2022-10-21T07:45:03.143Z,98679.03
2022-10-21T07:46:07.040Z,98667.53
2022-10-21T07:47:09.424Z,98662.19
2022-10-21T07:48:11.635Z,98666.28
2022-10-21T07:49:14.909Z,98671.38
2022-10-21T07:50:17.128Z,98669.34
2022-10-21T07:51:26.874Z,98669.34
2022-10-21T07:52:32.722Z,98680.66
2022-10-21T07:53:38.416Z,98685.75
2022-10-21T07:54:40.571Z,98689.47
2022-10-21T07:55:42.725Z,98689.47
2022-10-21T07:56:49.961Z,98695.59
2022-10-21T07:57:52.172Z,98688.03
2022-10-21T07:58:54.587Z,98682.53
2022-10-21T07:59:56.779Z,98680.09
2022-10-21T08:01:00.790Z,98680.88
2022-10-21T08:02:03.031Z,98679.50
2022-10-21T08:03:05.238Z,98682.41
2022-10-21T08:04:07.475Z,98685.28
2022-10-21T08:05:09.715Z,98688.69
2022-10-21T08:06:14.446Z,98691.13
2022-10-21T08:07:16.665Z,98686.31
2022-10-21T08:08:21.654Z,98694.16
2022-10-21T08:09:24.019Z,98691.50
2022-10-21T08:10:26.185Z,98689.69
2022-10-21T08:11:31.514Z,98703.88
2022-10-21T08:12:33.723Z,98699.78
2022-10-21T08:13:36.217Z,98701.47
2022-10-21T08:14:39.467Z,98707.59
2022-10-21T08:15:45.821Z,98696.69
2022-10-21T08:16:51.994Z,98706.91
2022-10-21T08:17:54.179Z,98709.34
2022-10-21T08:18:58.958Z,98709.13
2022-10-21T08:20:01.180Z,98711.41
2022-10-21T08:21:03.997Z,98717.91
2022-10-21T08:22:06.467Z,98713.75
2022-10-21T08:23:09.704Z,98718.09
2022-10-21T08:24:11.905Z,98718.31
2022-10-21T08:25:16.732Z,98719.78
2022-10-21T08:26:18.895Z,98719.44
2022-10-21T08:27:21.080Z,98718.38
2022-10-21T08:28:26.053Z,98710.53
2022-10-21T08:29:28.205Z,98711.03
2022-10-21T08:30:31.699Z,98710.53
2022-10-21T08:31:33.920Z,98715.72
2022-10-21T08:32:36.332Z,98704.84
2022-10-21T08:33:39.425Z,98700.06
2022-10-21T08:34:41.679Z,98702.91
2022-10-21T08:35:44.067Z,98714.38
2022-10-21T08:36:46.250Z,98699.09
2022-10-21T08:37:49.822Z,98708.00
2022-10-21T08:38:53.250Z,98717.13
2022-10-21T08:39:55.397Z,98716.56
2022-10-21T08:40:57.551Z,98713.34
2022-10-21T08:42:08.224Z,98724.59
2022-10-21T08:43:19.082Z,98723.06
2022-10-21T08:44:37.742Z,98719.41
2022-10-21T08:45:49.041Z,98722.06
2022-10-21T08:47:20.684Z,98716.88
2022-10-21T08:48:55.343Z,98727.25
2022-10-21T08:50:06.571Z,98727.00
2022-10-21T08:51:21.997Z,98731.97
2022-10-21T08:52:37.064Z,98743.34
2022-10-21T08:53:44.466Z,98736.69
2022-10-21T08:55:00.092Z,98727.16
2022-10-21T08:56:06.764Z,98729.16
2022-10-21T08:57:11.471Z,98715.69
2022-10-21T08:58:17.772Z,98705.91
2022-10-21T08:59:23.264Z,98710.31
2022-10-21T09:00:35.785Z,98716.97
2022-10-21T09:01:48.976Z,98718.09
2022-10-21T09:03:39.118Z,98715.63
2022-10-21T09:05:07.347Z,98732.34
2022-10-21T09:06:19.522Z,98745.47
2022-10-21T09:07:57.173Z,98750.28
2022-10-21T09:09:24.017Z,98747.94
2022-10-21T09:10:49.377Z,98740.31
2022-10-21T09:12:07.273Z,98740.78
2022-10-21T09:13:15.629Z,98743.91
2022-10-21T09:14:45.186Z,98743.06
2022-10-21T09:15:59.154Z,98742.44
2022-10-21T09:17:21.139Z,98741.00
2022-10-21T09:18:46.072Z,98743.06
2022-10-21T09:20:00.095Z,98759.03
2022-10-21T09:21:41.060Z,98755.91
2022-10-21T09:23:16.562Z,98753.47
2022-10-21T09:24:35.923Z,98763.03
2022-10-21T09:25:57.138Z,98762.94
2022-10-21T09:27:01.943Z,98763.03
2022-10-21T09:28:14.924Z,98766.19
2022-10-21T09:29:28.653Z,98763.13
2022-10-21T09:30:30.875Z,98769.22
2022-10-21T09:31:33.019Z,98757.06
2022-10-21T09:32:40.405Z,98756.59
2022-10-21T09:33:46.393Z,98764.72
2022-10-21T09:35:17.847Z,98764.63
2022-10-21T09:36:47.920Z,98763.44
2022-10-21T09:37:56.158Z,98761.69
2022-10-21T09:39:13.008Z,98757.53
2022-10-21T09:40:19.114Z,98765.13
2022-10-21T09:41:27.535Z,98770.78
2022-10-21T09:42:46.270Z,98759.97
2022-10-21T09:43:50.647Z,98782.72
2022-10-21T09:44:52.964Z,98772.47
2022-10-21T09:45:55.796Z,98770.97
2022-10-21T09:46:57.963Z,98774.44
2022-10-21T09:48:20.328Z,98774.41
2022-10-21T09:50:58.239Z,98768.56
2022-10-21T09:52:04.491Z,98779.56
2022-10-21T09:53:18.251Z,98780.63
2022-10-21T09:54:25.539Z,98784.78
2022-10-21T09:55:29.817Z,98780.63
2022-10-21T09:56:39.092Z,98781.00
2022-10-21T09:58:01.880Z,98784.56
2022-10-21T09:59:07.514Z,98785.94
2022-10-21T10:00:12.896Z,98777.88
2022-10-21T10:01:20.544Z,98787.22
2022-10-21T10:02:28.249Z,98794.31
2022-10-21T10:03:35.597Z,98793.94
2022-10-21T10:04:37.908Z,98798.25
2022-10-21T10:05:49.613Z,98801.66
2022-10-21T10:06:52.100Z,98801.94
2022-10-21T10:07:54.338Z,98797.88
2022-10-21T10:09:08.243Z,98803.78
2022-10-21T10:10:30.626Z,98805.56
2022-10-21T10:11:32.782Z,98804.88
2022-10-21T10:12:34.995Z,98807.25
2022-10-21T10:13:59.010Z,98811.56
2022-10-21T10:15:29.338Z,98825.47
2022-10-21T10:16:33.672Z,98820.53
2022-10-21T10:17:38.528Z,98820.81
2022-10-21T10:18:42.155Z,98822.72
2022-10-21T10:19:44.398Z,98828.63
2022-10-21T10:20:46.558Z,98832.25
2022-10-21T10:22:11.733Z,98834.63
2022-10-21T10:23:19.247Z,98843.94
2022-10-21T10:24:21.712Z,98845.94
2022-10-21T10:25:28.476Z,98834.28
2022-10-21T10:26:38.256Z,98843.81
2022-10-21T10:27:52.550Z,98840.69
2022-10-21T10:29:28.840Z,98846.13
2022-10-21T10:30:49.302Z,98853.88
2022-10-21T10:31:56.175Z,98842.78
2022-10-21T10:33:06.400Z,98858.13
2022-10-21T10:34:19.961Z,98866.31
2022-10-21T10:35:30.354Z,98855.69
2022-10-21T10:36:38.091Z,98858.28
2022-10-21T10:37:46.306Z,98865.41
2022-10-21T10:38:57.005Z,98857.03
2022-10-21T10:40:02.770Z,98856.34
2022-10-21T10:41:08.387Z,98866.38
2022-10-21T10:42:18.308Z,98866.94
2022-10-21T10:43:27.797Z,98869.75
2022-10-21T10:44:44.011Z,98882.41
2022-10-21T10:45:51.743Z,98875.44
2022-10-21T10:46:59.019Z,98880.72
2022-10-21T10:48:06.791Z,98874.63
2022-10-21T10:49:14.706Z,98878.78
2022-10-21T10:50:41.559Z,98881.84
2022-10-21T10:51:47.442Z,98883.31
2022-10-21T10:53:09.277Z,98867.00
2022-10-21T10:54:17.896Z,98878.97
2022-10-21T10:55:20.177Z,98878.47
2022-10-21T10:56:32.082Z,98879.56
2022-10-21T10:57:44.346Z,98868.13
2022-10-21T10:59:05.888Z,98877.84
2022-10-21T11:00:16.118Z,98873.19
2022-10-21T11:01:27.187Z,98872.22
2022-10-21T11:02:48.490Z,98872.94
2022-10-21T11:04:01.211Z,98869.31
2022-10-21T11:05:19.019Z,98867.28
2022-10-21T11:06:46.269Z,98867.41
2022-10-21T11:07:54.098Z,98867.63
2022-10-21T11:08:58.745Z,98858.72
2022-10-21T11:10:11.342Z,98866.66
2022-10-21T11:11:28.518Z,98860.28
2022-10-21T11:12:30.691Z,98868.84
2022-10-21T11:13:41.233Z,98869.72
2022-10-21T11:14:47.467Z,98874.28
2022-10-21T11:16:05.570Z,98877.50
2022-10-21T11:17:16.103Z,98872.69
2022-10-21T11:18:37.811Z,98871.25
2022-10-21T11:20:05.985Z,98870.28
2022-10-21T11:21:29.319Z,98859.69
2022-10-21T11:22:43.703Z,98865.09
2022-10-21T11:23:45.792Z,98872.84
2022-10-21T11:25:02.409Z,98870.81
2022-10-21T11:26:32.266Z,98868.84
2022-10-21T11:27:58.842Z,98879.16
2022-10-21T11:29:27.052Z,98877.53
2022-10-21T11:30:41.345Z,98883.31
2022-10-21T11:32:10.301Z,98878.72
2022-10-21T11:33:31.902Z,98885.69
2022-10-21T11:34:47.415Z,98880.75
2022-10-21T11:36:20.688Z,98884.66
2022-10-21T11:37:52.894Z,98883.00
2022-10-21T11:38:55.003Z,98890.81
2022-10-21T11:40:11.347Z,98888.75
2022-10-21T11:41:31.097Z,98880.59
2022-10-21T11:42:44.995Z,98884.78
2022-10-21T11:43:54.685Z,98882.53
2022-10-21T11:45:11.805Z,98884.44
2022-10-21T11:46:38.235Z,98872.75
2022-10-21T11:47:55.814Z,98881.06
2022-10-21T11:49:00.598Z,98877.34
2022-10-21T11:50:28.946Z,98874.53
2022-10-21T11:51:46.067Z,98870.47
2022-10-21T11:53:18.307Z,98868.63
2022-10-21T11:54:44.557Z,98866.00
2022-10-21T11:56:19.605Z,98871.53
2022-10-21T11:57:30.732Z,98864.28
2022-10-21T11:59:05.951Z,98865.50
2022-10-21T12:00:17.843Z,98865.47
2022-10-21T12:01:49.638Z,98858.72
2022-10-21T12:03:10.538Z,98852.81
2022-10-21T12:04:15.880Z,98863.09
2022-10-21T12:05:22.581Z,98868.03
2022-10-21T12:06:30.460Z,98873.47
2022-10-21T12:08:07.551Z,98866.31
2022-10-21T12:09:19.331Z,98873.47
2022-10-21T12:10:57.227Z,98875.41
2022-10-21T12:12:05.331Z,98874.19
2022-10-21T12:13:17.140Z,98873.97
2022-10-21T12:14:31.799Z,98880.34
2022-10-21T12:15:46.301Z,98869.25
2022-10-21T12:16:51.313Z,98878.16
2022-10-21T12:17:55.449Z,98882.78
2022-10-21T12:19:01.376Z,98877.94
2022-10-21T12:20:07.238Z,98882.03
2022-10-21T12:21:18.833Z,98878.56
2022-10-21T12:22:23.742Z,98871.28
2022-10-21T12:23:29.548Z,98872.78
2022-10-21T12:24:32.091Z,98876.41
2022-10-21T12:25:41.239Z,98873.25
2022-10-21T12:26:53.756Z,98886.66
2022-10-21T12:28:20.852Z,98868.50
2022-10-21T12:29:34.978Z,98882.81
2022-10-21T12:30:55.424Z,98874.34
2022-10-21T12:32:41.288Z,98881.81
2022-10-21T12:33:45.300Z,98869.72
2022-10-21T12:34:47.650Z,98873.94
2022-10-21T12:35:56.120Z,98878.09
2022-10-21T12:37:02.279Z,98877.25
2022-10-21T12:38:07.396Z,98874.31
2022-10-21T12:39:16.984Z,98871.22
2022-10-21T12:40:28.000Z,98872.28
2022-10-21T12:41:39.173Z,98867.22
2022-10-21T12:42:57.493Z,98872.13
2022-10-21T12:44:02.692Z,98870.00
2022-10-21T12:45:06.557Z,98869.63
2022-10-21T12:46:11.615Z,98869.00
2022-10-21T12:47:36.350Z,98864.66
2022-10-21T12:48:43.863Z,98863.22
2022-10-21T12:49:46.428Z,98865.38
2022-10-21T12:51:01.373Z,98871.28
2022-10-21T12:52:20.884Z,98870.66
2022-10-21T12:53:46.753Z,98878.31
2022-10-21T12:55:02.231Z,98877.09
2022-10-21T12:56:06.736Z,98874.13
2022-10-21T12:57:25.558Z,98882.00
2022-10-21T12:58:33.163Z,98878.34
2022-10-21T12:59:41.156Z,98872.22
2022-10-21T13:00:43.376Z,98882.47
2022-10-21T13:02:05.503Z,98883.66
2022-10-21T13:03:22.353Z,98878.00
2022-10-21T13:04:36.199Z,98872.44
2022-10-21T13:05:38.552Z,98869.09
2022-10-21T13:06:57.572Z,98875.34
2022-10-21T13:08:22.726Z,98872.81
2022-10-21T13:09:38.292Z,98874.22
2022-10-21T13:10:41.475Z,98868.44
2022-10-21T13:11:44.058Z,98866.38
2022-10-21T13:12:46.374Z,98864.22
2022-10-21T13:14:17.338Z,98871.13
2022-10-21T13:15:22.285Z,98872.66
2022-10-21T13:16:29.402Z,98869.56
2022-10-21T13:17:54.001Z,98866.91
2022-10-21T13:19:16.904Z,98861.78
2022-10-21T13:20:21.822Z,98849.59
2022-10-21T13:21:37.487Z,98841.78
2022-10-21T13:22:44.944Z,98842.66